FlightSource - Aviation Photo Database

World Wide Airport Lookup


Search by ICAO
Or
Search by City

FlightSource.ca - Aviation Photo Database - Santa Maria Airport Information
Airport Identification
Name: Santa Maria Airport
ICAO: LPAZ
IATA: SMA
Airport Location
City: Vila do Porto
Region: 20
Country: Portugal
Continent: Europe
Latitude: 36.9714
Longitude: -25.1706
Airport Information
Type: Medium Airport
Elevation: 308 Feet ASL
Flight Status: LPAZ
More Info: LPAZ
Airport Weather    
Metar: LPAZ 121900Z 03006KT 9999 SCT017 BKN026 17/14 Q1031
TAF:


Advertisement